Time;durP1;ratioP1;P1;durP2;ratioP2;P2;SDS_P1;SDS_P2;PMS_P1;PMS_P2;Temp;Humidity;BMP_temperature;BMP_pressure;BME280_temperature;BME280_humidity;BME280_pressure;Samples;Min_cycle;Max_cycle;Signal;HPM_P1;HPM_P2
2023/10/11 00:00:24;;;;;;;9.90;4.28;;;;;;;-146.25;100.00;52410.78;2104110;28;20149;-65
2023/10/11 00:01:26;;;;;;;8.75;4.25;;;;;;;-146.25;100.00;52437.13;2103139;28;34238;-64
2023/10/11 00:02:30;;;;;;;8.07;3.88;;;;;;;-146.25;100.00;52424.97;2103446;28;33261;-64
2023/10/11 00:03:32;;;;;;;9.00;4.18;;;;;;;-146.25;100.00;52400.63;2103868;28;33755;-65
2023/10/11 00:04:35;;;;;;;11.73;4.10;;;;;;;-146.25;100.00;52445.25;2105631;28;36490;-65
2023/10/11 00:05:40;;;;;;;8.05;4.03;;;;;;;-146.25;100.00;52384.41;2114024;28;20036;-65
2023/10/11 00:06:42;;;;;;;8.95;4.13;;;;;;;-146.25;100.00;52376.31;2103922;28;37394;-65
2023/10/11 00:07:44;;;;;;;7.43;3.92;;;;;;;-146.25;100.00;52390.50;2096017;28;32086;-64
2023/10/11 00:08:46;;;;;;;10.23;4.45;;;;;;;-146.25;100.00;52408.75;2097472;28;27321;-64
2023/10/11 00:09:52;;;;;;;9.88;4.32;;;;;;;-146.25;100.00;52429.03;2105097;28;35946;-65
2023/10/11 00:10:59;;;;;;;8.10;3.97;;;;;;;-146.25;100.00;52441.19;2104811;28;20037;-64
2023/10/11 00:12:04;;;;;;;10.25;4.32;;;;;;;-146.25;100.00;52416.84;2112825;28;37690;-64
2023/10/11 00:13:09;;;;;;;9.45;4.28;;;;;;;-146.25;100.00;52416.84;2112209;28;29789;-64
2023/10/11 00:14:13;;;;;;;8.80;4.70;;;;;;;-146.25;100.00;52416.84;2104820;28;31559;-64
2023/10/11 00:15:16;;;;;;;12.35;4.60;;;;;;;-146.25;100.00;52416.84;2105452;28;35412;-64
2023/10/11 00:16:21;;;;;;;8.55;4.55;;;;;;;-146.25;100.00;52412.81;2104502;28;32414;-64
2023/10/11 00:17:22;;;;;;;9.45;4.40;;;;;;;-146.25;100.00;52416.84;2105326;28;34997;-64
2023/10/11 00:18:28;;;;;;;5.85;3.58;;;;;;;-146.25;100.00;52408.75;2104510;28;34386;-64
2023/10/11 00:19:30;;;;;;;9.40;4.05;;;;;;;-146.25;100.00;52396.59;2105387;28;31070;-64
2023/10/11 00:20:47;;;;;;;12.18;4.10;;;;;;;-146.25;100.00;52414.84;2106097;28;37073;-65
2023/10/11 00:21:53;;;;;;;7.18;4.30;;;;;;;-146.25;100.00;52420.91;2105516;28;20045;-65
2023/10/11 00:22:55;;;;;;;7.45;4.05;;;;;;;-146.25;100.00;52412.81;2104664;28;31058;-65
2023/10/11 00:23:57;;;;;;;9.43;4.65;;;;;;;-146.25;100.00;52402.66;2104546;28;37486;-65
2023/10/11 00:24:59;;;;;;;8.43;4.03;;;;;;;-146.25;100.00;52439.16;2104568;28;31755;-64
2023/10/11 00:26:01;;;;;;;7.18;4.07;;;;;;;-146.25;100.00;52422.94;2105859;28;37174;-64
2023/10/11 00:27:05;;;;;;;9.43;4.22;;;;;;;-146.25;100.00;52424.97;2104632;28;37196;-64
2023/10/11 00:28:08;;;;;;;8.95;4.57;;;;;;;-146.25;100.00;52424.97;2104955;28;25424;-64
2023/10/11 00:29:11;;;;;;;9.43;4.47;;;;;;;-146.25;100.00;52388.47;2105559;28;20041;-64
2023/10/11 00:30:17;;;;;;;11.43;4.53;;;;;;;-146.25;100.00;52418.88;2113220;28;28122;-64
2023/10/11 00:31:19;;;;;;;10.85;4.90;;;;;;;-146.25;100.00;52388.47;2113271;28;35470;-63
2023/10/11 00:32:22;;;;;;;10.00;3.83;;;;;;;-146.25;100.00;52427.00;2113307;28;22246;-65
2023/10/11 00:33:24;;;;;;;8.80;4.38;;;;;;;-146.25;100.00;52433.06;2112707;28;31370;-64
2023/10/11 00:34:39;;;;;;;8.88;4.55;;;;;;;-146.25;100.00;52402.66;2111729;28;21122;-65
2023/10/11 00:35:50;;;;;;;9.43;4.68;;;;;;;-146.25;100.00;52402.66;2112903;28;35869;-64
2023/10/11 00:36:54;;;;;;;7.60;4.22;;;;;;;-146.25;100.00;52447.28;2111289;28;27890;-65
2023/10/11 00:37:56;;;;;;;8.98;4.65;;;;;;;-146.25;100.00;52378.34;2113357;28;20154;-65
2023/10/11 00:38:58;;;;;;;13.35;5.32;;;;;;;-146.25;100.00;52433.06;2112955;28;29790;-64
2023/10/11 00:40:01;;;;;;;9.82;4.85;;;;;;;-146.25;100.00;52374.28;2105453;28;33169;-64
2023/10/11 00:41:18;;;;;;;13.80;4.45;;;;;;;-146.25;100.00;52412.81;2104593;28;31237;-65
2023/10/11 00:42:21;;;;;;;8.57;4.57;;;;;;;-146.25;100.00;52429.03;2105899;28;24133;-65
2023/10/11 00:43:34;;;;;;;8.13;4.60;;;;;;;-146.25;100.00;52388.47;2106381;28;20040;-64
2023/10/11 00:44:40;;;;;;;5.95;4.43;;;;;;;-146.25;100.00;52427.00;2113283;28;31891;-65
2023/10/11 00:45:43;;;;;;;9.13;4.68;;;;;;;-146.25;100.00;52431.06;2112594;28;23634;-64
2023/10/11 00:46:59;;;;;;;9.48;5.05;;;;;;;-146.25;100.00;52392.53;2105092;28;27966;-65
2023/10/11 00:48:06;;;;;;;8.77;4.82;;;;;;;-146.25;100.00;52422.94;2102644;28;32481;-64
2023/10/11 00:49:13;;;;;;;11.38;4.65;;;;;;;-146.25;100.00;52439.16;2096412;28;20274;-65
2023/10/11 00:50:15;;;;;;;10.07;4.97;;;;;;;-146.25;100.00;52394.56;2096991;28;27242;-65
2023/10/11 00:51:29;;;;;;;11.73;4.80;;;;;;;-146.25;100.00;52433.06;2096880;28;20122;-64
2023/10/11 00:52:32;;;;;;;9.15;4.22;;;;;;;-146.25;100.00;52416.84;2097549;28;27384;-64
2023/10/11 00:53:35;;;;;;;12.93;5.28;;;;;;;-146.25;100.00;52437.13;2105066;28;20037;-65
2023/10/11 00:54:38;;;;;;;13.70;4.97;;;;;;;-146.25;100.00;52420.91;2104569;28;27331;-64
2023/10/11 00:55:41;;;;;;;8.55;4.68;;;;;;;-146.25;100.00;52380.38;2104650;28;25674;-64
2023/10/11 00:56:44;;;;;;;9.27;4.53;;;;;;;-146.25;100.00;52388.47;2102093;28;35721;-64
2023/10/11 00:57:49;;;;;;;9.50;5.32;;;;;;;-146.25;100.00;52424.97;2105461;28;27135;-65
2023/10/11 00:58:52;;;;;;;7.10;4.70;;;;;;;-146.25;100.00;52416.84;2105606;28;20114;-64
2023/10/11 00:59:53;;;;;;;11.25;5.03;;;;;;;-146.25;100.00;52396.59;2096544;28;29730;-64
2023/10/11 01:00:57;;;;;;;9.93;5.20;;;;;;;-146.25;100.00;52376.31;2105208;28;23127;-64
2023/10/11 01:01:59;;;;;;;9.25;4.85;;;;;;;-146.25;100.00;52422.94;2104997;28;28321;-65
2023/10/11 01:03:03;;;;;;;8.73;4.88;;;;;;;-146.25;100.00;52408.75;2113368;28;20052;-65
2023/10/11 01:04:13;;;;;;;8.95;4.97;;;;;;;-146.25;100.00;52392.53;2113446;28;20083;-65
2023/10/11 01:05:19;;;;;;;10.10;4.90;;;;;;;-146.25;100.00;52402.66;2105010;28;20048;-65
2023/10/11 01:06:25;;;;;;;10.00;5.32;;;;;;;-146.25;100.00;52461.47;2104881;28;20815;-64
2023/10/11 01:07:28;;;;;;;8.80;5.30;;;;;;;-146.25;100.00;52437.13;2104802;28;31528;-65
2023/10/11 01:08:48;;;;;;;8.85;5.13;;;;;;;-146.25;100.00;52441.19;2105518;28;24050;-64
2023/10/11 01:09:50;;;;;;;;;;;;;;;-146.25;100.00;52406.72;2105708;28;20037;-65
2023/10/11 01:10:54;;;;;;;11.27;5.80;;;;;;;-146.25;100.00;52422.94;2107125;28;33539;-65
2023/10/11 01:11:56;;;;;;;9.77;5.55;;;;;;;-146.25;100.00;52400.63;2104885;28;20047;-64
2023/10/11 01:12:57;;;;;;;12.73;5.60;;;;;;;-146.25;100.00;52420.91;2106401;28;21271;-65
2023/10/11 01:13:59;;;;;;;11.85;5.30;;;;;;;-146.25;100.00;52445.25;2104672;28;27446;-64
2023/10/11 01:15:02;;;;;;;13.60;5.55;;;;;;;-146.25;100.00;52400.63;2104133;28;25998;-64
2023/10/11 01:16:06;;;;;;;12.88;5.68;;;;;;;-146.25;100.00;52400.63;2103226;28;32869;-65
2023/10/11 01:17:08;;;;;;;12.05;5.60;;;;;;;-146.25;100.00;52406.72;2104597;28;20179;-64
2023/10/11 01:18:12;;;;;;;9.73;5.78;;;;;;;-146.25;100.00;52429.03;2105592;28;27665;-64
2023/10/11 01:19:16;;;;;;;9.23;5.53;;;;;;;-146.25;100.00;52396.59;2104183;28;27646;-65
2023/10/11 01:20:19;;;;;;;11.15;5.55;;;;;;;-146.25;100.00;52457.41;2104862;28;26125;-64
2023/10/11 01:21:21;;;;;;;10.10;5.70;;;;;;;-146.25;100.00;52416.84;2095887;28;32958;-64
2023/10/11 01:22:23;;;;;;;11.30;5.82;;;;;;;-146.25;100.00;52402.66;2095730;28;22369;-64
2023/10/11 01:23:28;;;;;;;11.68;5.65;;;;;;;-146.25;100.00;52412.81;2105514;28;24093;-64
2023/10/11 01:24:30;;;;;;;12.20;6.03;;;;;;;-146.25;100.00;52392.53;2113456;28;27950;-64
2023/10/11 01:25:33;;;;;;;11.05;5.53;;;;;;;-146.25;100.00;52461.47;2112771;28;33448;-65
2023/10/11 01:26:36;;;;;;;8.95;5.78;;;;;;;-146.25;100.00;52412.81;2104720;28;27283;-64
2023/10/11 01:27:41;;;;;;;9.30;5.80;;;;;;;-146.25;100.00;52424.97;2096744;28;20056;-64
2023/10/11 01:28:48;;;;;;;14.20;5.75;;;;;;;-146.25;100.00;52366.16;2104487;28;24896;-65
2023/10/11 01:29:50;;;;;;;9.48;5.80;;;;;;;-146.25;100.00;52449.31;2105534;28;23285;-64
2023/10/11 01:30:55;;;;;;;9.65;5.45;;;;;;;-146.25;100.00;52402.66;2104789;28;30089;-65
2023/10/11 01:32:00;;;;;;;15.85;6.03;;;;;;;-146.25;100.00;52400.63;2105725;28;20133;-64
2023/10/11 01:33:01;;;;;;;11.35;6.30;;;;;;;-146.25;100.00;52384.41;2105076;28;27827;-64
2023/10/11 01:34:03;;;;;;;10.60;5.93;;;;;;;-146.25;100.00;52422.94;2104966;28;27863;-64
2023/10/11 01:35:18;;;;;;;11.07;5.95;;;;;;;-146.25;100.00;52414.84;2104447;28;20101;-64
2023/10/11 01:36:22;;;;;;;10.70;6.03;;;;;;;-146.25;100.00;52408.75;2105213;28;20362;-64
2023/10/11 01:37:26;;;;;;;15.90;6.70;;;;;;;-146.25;100.00;52408.75;2103822;28;31157;-65
2023/10/11 01:38:28;;;;;;;10.90;6.45;;;;;;;-146.25;100.00;52429.03;2104313;28;28436;-64
2023/10/11 01:39:32;;;;;;;12.93;6.13;;;;;;;-146.25;100.00;52396.59;2104968;28;24397;-64
2023/10/11 01:40:39;;;;;;;10.40;6.28;;;;;;;-146.25;100.00;52358.06;2105256;28;20036;-65
2023/10/11 01:41:42;;;;;;;12.40;5.95;;;;;;;-146.25;100.00;52380.38;2105588;28;20122;-63
2023/10/11 01:42:49;;;;;;;13.50;6.07;;;;;;;-146.25;100.00;52435.09;2113339;28;20914;-64
2023/10/11 01:43:54;;;;;;;8.77;6.15;;;;;;;-146.25;100.00;52392.53;2112335;28;29750;-64
2023/10/11 01:44:56;;;;;;;10.25;6.13;;;;;;;-146.25;100.00;52414.84;2105799;28;20159;-64
2023/10/11 01:45:58;;;;;;;11.68;5.82;;;;;;;-146.25;100.00;52412.81;2104022;28;30299;-62
2023/10/11 01:47:01;;;;;;;16.63;6.65;;;;;;;-146.25;100.00;52427.00;2096161;28;20906;-64
2023/10/11 01:48:04;;;;;;;12.13;6.55;;;;;;;-146.25;100.00;52437.13;2096544;28;20033;-65
2023/10/11 01:49:08;;;;;;;14.50;6.45;;;;;;;-146.25;100.00;52410.78;2105758;28;20171;-64
2023/10/11 01:50:10;;;;;;;15.93;6.80;;;;;;;-146.25;100.00;52410.78;2105509;28;20098;-64
2023/10/11 01:51:16;;;;;;;12.13;6.75;;;;;;;-146.25;100.00;52376.31;2105274;28;30666;-65
2023/10/11 01:52:18;;;;;;;12.00;6.28;;;;;;;-146.25;100.00;52422.94;2112615;28;20081;-64
2023/10/11 01:53:20;;;;;;;11.50;6.05;;;;;;;-146.25;100.00;52402.66;2113116;28;25360;-64
2023/10/11 01:54:22;;;;;;;12.90;6.72;;;;;;;-146.25;100.00;52412.81;2112709;28;26295;-64
2023/10/11 01:55:25;;;;;;;11.18;6.30;;;;;;;-146.25;100.00;52398.59;2105940;28;20041;-64
2023/10/11 01:56:30;;;;;;;10.93;6.30;;;;;;;-146.25;100.00;52433.06;2104747;28;35536;-64
2023/10/11 01:57:34;;;;;;;13.02;6.85;;;;;;;-146.25;100.00;52408.75;2113254;28;20036;-64
2023/10/11 01:58:37;;;;;;;10.50;6.43;;;;;;;-146.25;100.00;52420.91;2113023;28;21009;-65
2023/10/11 01:59:41;;;;;;;16.25;6.22;;;;;;;-146.25;100.00;52424.97;2105269;28;20037;-64
2023/10/11 02:00:43;;;;;;;12.18;6.78;;;;;;;-146.25;100.00;52396.59;2107181;28;20830;-63
2023/10/11 02:01:58;;;;;;;14.10;7.00;;;;;;;-146.25;100.00;52388.47;2113180;28;24082;-64
2023/10/11 02:03:01;;;;;;;14.02;6.75;;;;;;;-146.25;100.00;52453.34;2104598;28;26077;-64
2023/10/11 02:04:04;;;;;;;10.88;6.57;;;;;;;-146.25;100.00;52453.34;2104509;28;20342;-65
2023/10/11 02:05:06;;;;;;;13.25;6.80;;;;;;;-146.25;100.00;52420.91;2104318;28;27793;-64
2023/10/11 02:06:08;;;;;;;12.70;6.88;;;;;;;-146.25;100.00;52404.69;2112638;28;20829;-64
2023/10/11 02:07:12;;;;;;;15.80;7.43;;;;;;;-146.25;100.00;52376.31;2104230;28;23517;-64
2023/10/11 02:08:17;;;;;;;11.18;6.93;;;;;;;-146.25;100.00;52418.88;2104138;28;23885;-65
2023/10/11 02:09:21;;;;;;;13.55;6.55;;;;;;;-146.25;100.00;52420.91;2104292;28;32165;-64
2023/10/11 02:10:27;;;;;;;15.25;7.03;;;;;;;-146.25;100.00;52376.31;2105281;28;20072;-65
2023/10/11 02:11:31;;;;;;;12.05;6.90;;;;;;;-146.25;100.00;52396.59;2104134;28;20648;-64
2023/10/11 02:12:35;;;;;;;12.15;7.00;;;;;;;-146.25;100.00;52416.84;2104548;28;28067;-65
2023/10/11 02:13:41;;;;;;;12.95;7.20;;;;;;;-146.25;100.00;52424.97;2104163;28;21753;-64
2023/10/11 02:14:45;;;;;;;13.43;7.13;;;;;;;-146.25;100.00;52400.63;2104438;28;20048;-64
2023/10/11 02:15:48;;;;;;;13.82;6.95;;;;;;;-146.25;100.00;52400.63;2104164;28;28773;-64
2023/10/11 02:16:53;;;;;;;9.55;6.85;;;;;;;-146.25;100.00;52441.19;2104023;28;37121;-64
2023/10/11 02:17:55;;;;;;;12.48;7.85;;;;;;;-146.25;100.00;52416.84;2104245;28;30458;-65
2023/10/11 02:19:00;;;;;;;14.18;6.95;;;;;;;-146.25;100.00;52412.81;2096023;28;20049;-64
2023/10/11 02:20:03;;;;;;;12.98;6.60;;;;;;;-146.25;100.00;52378.34;2088527;28;29378;-65
2023/10/11 02:21:08;;;;;;;11.23;6.35;;;;;;;-146.25;100.00;52408.75;2104555;28;34020;-64
2023/10/11 02:22:11;;;;;;;12.32;6.75;;;;;;;-146.25;100.00;52429.03;2104758;28;31966;-64
2023/10/11 02:23:16;;;;;;;13.88;6.85;;;;;;;-146.25;100.00;52433.06;2104748;28;20151;-65
2023/10/11 02:24:18;;;;;;;13.38;7.28;;;;;;;-146.25;100.00;52368.19;2104870;28;26242;-64
2023/10/11 02:25:25;;;;;;;11.38;6.45;;;;;;;-146.25;100.00;52388.47;2104190;28;31590;-64
2023/10/11 02:26:28;;;;;;;10.80;7.07;;;;;;;-146.25;100.00;52384.41;2103047;28;20041;-64
2023/10/11 02:27:33;;;;;;;12.43;6.78;;;;;;;-146.25;100.00;52378.34;2096129;28;29363;-64
2023/10/11 02:28:38;;;;;;;12.93;7.00;;;;;;;-146.25;100.00;52435.09;2104134;28;26252;-65
2023/10/11 02:29:44;;;;;;;11.90;7.00;;;;;;;-146.25;100.00;52418.88;2105434;28;20792;-64
2023/10/11 02:30:46;;;;;;;15.00;6.82;;;;;;;-146.25;100.00;52416.84;2104851;28;33566;-64
2023/10/11 02:31:53;;;;;;;15.07;7.13;;;;;;;-146.25;100.00;52396.59;2104670;28;26930;-64
2023/10/11 02:32:58;;;;;;;11.90;6.65;;;;;;;-146.25;100.00;52418.88;2103882;28;24623;-65
2023/10/11 02:34:12;;;;;;;12.95;7.75;;;;;;;-146.25;100.00;52408.75;2104365;28;30349;-64
2023/10/11 02:35:18;;;;;;;12.68;6.60;;;;;;;-146.25;100.00;52390.50;2107030;28;20078;-65
2023/10/11 02:36:20;;;;;;;16.65;6.88;;;;;;;-146.25;100.00;52376.31;2104129;28;27429;-64
2023/10/11 02:37:29;;;;;;;12.50;6.20;;;;;;;-146.25;100.00;52420.91;2104224;28;20041;-65
2023/10/11 02:38:31;;;;;;;12.00;6.88;;;;;;;-146.25;100.00;52408.75;2103915;28;33643;-64
2023/10/11 02:39:33;;;;;;;14.75;7.70;;;;;;;-146.25;100.00;52406.72;2103555;28;32119;-64
2023/10/11 02:40:38;;;;;;;13.90;7.50;;;;;;;-146.25;100.00;52408.75;2104649;28;20265;-64
2023/10/11 02:41:40;;;;;;;11.32;7.40;;;;;;;-146.25;100.00;52394.56;2103133;28;20196;-63
2023/10/11 02:42:49;;;;;;;16.38;7.68;;;;;;;-146.25;100.00;52445.25;2112623;28;25083;-64
2023/10/11 02:43:57;;;;;;;10.40;6.88;;;;;;;-146.25;100.00;52431.06;2104564;28;24003;-64
2023/10/11 02:45:05;;;;;;;10.75;6.72;;;;;;;-146.25;100.00;52437.13;2088795;28;20041;-64
2023/10/11 02:46:11;;;;;;;13.18;7.15;;;;;;;-146.25;100.00;52429.03;2097024;28;30272;-64
2023/10/11 02:47:17;;;;;;;11.05;6.88;;;;;;;-146.25;100.00;52398.59;2104262;28;20048;-65
2023/10/11 02:48:22;;;;;;;12.07;6.88;;;;;;;-146.25;100.00;52420.91;2103710;28;20141;-64
2023/10/11 02:49:31;;;;;;;12.80;7.28;;;;;;;-146.25;100.00;52431.06;2121577;22;20040;31
2023/10/11 02:50:36;;;;;;;11.25;6.28;;;;;;;-146.25;100.00;52406.72;2073239;28;24480;-65
2023/10/11 02:51:49;;;;;;;12.45;7.15;;;;;;;-146.25;100.00;52396.59;2079058;28;31013;-65
2023/10/11 02:52:59;;;;;;;12.93;7.03;;;;;;;-146.25;100.00;52418.88;2086834;28;28457;-65
2023/10/11 02:54:05;;;;;;;15.82;7.57;;;;;;;-146.25;100.00;52396.59;2079156;28;24536;-65
2023/10/11 02:55:27;;;;;;;13.43;7.53;;;;;;;-146.25;100.00;52406.72;2080689;28;20038;-65
2023/10/11 02:56:46;;;;;;;13.63;7.65;;;;;;;-146.25;100.00;52453.34;2084176;28;37906;-65
2023/10/11 02:58:05;;;;;;;12.23;7.65;;;;;;;-146.25;100.00;52410.78;2087533;28;20034;-64
2023/10/11 02:59:11;;;;;;;12.43;7.20;;;;;;;-146.25;100.00;52416.84;2087578;28;20046;-65
2023/10/11 03:00:24;;;;;;;13.20;7.55;;;;;;;-146.25;100.00;52394.56;2086686;28;26918;-65
2023/10/11 03:01:31;;;;;;;13.43;7.63;;;;;;;-146.25;100.00;52418.88;2087666;28;20107;-65
2023/10/11 03:02:38;;;;;;;12.43;7.70;;;;;;;-146.25;100.00;52396.59;2079156;28;20122;-64
2023/10/11 03:03:44;;;;;;;13.63;7.63;;;;;;;-146.25;100.00;52400.63;2080509;28;20050;-65
2023/10/11 03:04:48;;;;;;;12.90;7.68;;;;;;;-146.25;100.00;52418.88;2087234;28;20970;-64
2023/10/11 03:05:51;;;;;;;12.07;7.20;;;;;;;-146.25;100.00;52453.34;2088169;28;20088;-62
2023/10/11 03:06:54;;;;;;;14.90;7.57;;;;;;;-146.25;100.00;52429.03;2086751;28;20030;-65
2023/10/11 03:08:14;;;;;;;16.17;8.20;;;;;;;-146.25;100.00;52396.59;2087893;28;20207;-64
2023/10/11 03:09:18;;;;;;;11.88;7.63;;;;;;;-146.25;100.00;52424.97;2085332;28;20045;-65
2023/10/11 03:10:20;;;;;;;13.25;7.75;;;;;;;-146.25;100.00;52384.41;2079263;28;20112;-65
2023/10/11 03:11:22;;;;;;;14.48;7.43;;;;;;;-146.25;100.00;52394.56;2078670;28;34587;-66
2023/10/11 03:12:30;;;;;;;11.65;7.10;;;;;;;-146.25;100.00;52424.97;2079106;28;20181;-65
2023/10/11 03:13:43;;;;;;;11.85;7.10;;;;;;;-146.25;100.00;52420.91;2087485;28;20942;-65
2023/10/11 03:14:46;;;;;;;15.57;7.88;;;;;;;-146.25;100.00;52431.06;2086125;28;21349;-66
2023/10/11 03:15:54;;;;;;;12.85;7.57;;;;;;;-146.25;100.00;52429.03;2086911;28;36006;-65
2023/10/11 03:16:57;;;;;;;14.27;8.02;;;;;;;-146.25;100.00;52461.47;2086052;28;35068;-65
2023/10/11 03:18:05;;;;;;;14.30;7.50;;;;;;;-146.25;100.00;52435.09;2079537;28;27703;-65
2023/10/11 03:19:10;;;;;;;11.15;7.18;;;;;;;-146.25;100.00;52408.75;2079165;28;36980;-65
2023/10/11 03:20:30;;;;;;;11.63;7.43;;;;;;;-146.25;100.00;52420.91;2080077;28;31742;-65
2023/10/11 03:21:35;;;;;;;13.02;7.78;;;;;;;-146.25;100.00;52433.06;2088588;28;32075;-65
2023/10/11 03:22:36;;;;;;;10.93;7.10;;;;;;;-146.25;100.00;52404.69;2084014;28;32665;-66
2023/10/11 03:23:45;;;;;;;14.23;7.57;;;;;;;-146.25;100.00;52410.78;2079068;28;36801;-65
2023/10/11 03:24:59;;;;;;;12.63;7.25;;;;;;;-146.25;100.00;52429.03;2078860;28;34967;-65
2023/10/11 03:26:09;;;;;;;10.77;7.53;;;;;;;-146.25;100.00;52404.69;2081013;28;32184;-65
2023/10/11 03:27:14;;;;;;;17.20;7.55;;;;;;;-146.25;100.00;52392.53;2084345;28;34041;-65
2023/10/11 03:28:21;;;;;;;15.63;7.32;;;;;;;-146.25;100.00;52424.97;2079319;28;34600;-64
2023/10/11 03:29:23;;;;;;;12.93;7.50;;;;;;;-146.25;100.00;52429.03;2086668;28;33995;-64
2023/10/11 03:30:24;;;;;;;14.32;8.00;;;;;;;-146.25;100.00;52416.84;2086801;28;31972;-65
2023/10/11 03:31:31;;;;;;;15.68;7.43;;;;;;;-146.25;100.00;52437.13;2079390;28;31110;-65
2023/10/11 03:32:36;;;;;;;12.65;7.85;;;;;;;-146.25;100.00;52422.94;2087425;28;34360;-65
2023/10/11 03:33:40;;;;;;;13.57;7.55;;;;;;;-146.25;100.00;52429.03;2085500;28;31118;-65
2023/10/11 03:34:42;;;;;;;12.82;7.93;;;;;;;-146.25;100.00;52477.69;2086850;28;38074;-65
2023/10/11 03:35:45;;;;;;;15.32;7.80;;;;;;;-146.25;100.00;52422.94;2086424;28;33403;-65
2023/10/11 03:36:52;;;;;;;14.85;7.78;;;;;;;-146.25;100.00;52376.31;2086977;28;35091;-65
2023/10/11 03:37:59;;;;;;;11.35;7.63;;;;;;;-146.25;100.00;52435.09;2086427;28;34238;-65
2023/10/11 03:39:09;;;;;;;15.73;7.55;;;;;;;-146.25;100.00;52420.91;2081339;28;32686;-65
2023/10/11 03:40:27;;;;;;;15.38;8.15;;;;;;;-146.25;100.00;52400.63;2088701;28;20042;-65
2023/10/11 03:41:29;;;;;;;12.80;7.25;;;;;;;-146.25;100.00;52378.34;2080701;28;20104;-65
2023/10/11 03:43:54;;;;;;;13.75;8.00;;;;;;;-146.25;100.00;52433.06;2081661;28;20104;-65
2023/10/11 03:44:59;;;;;;;13.50;7.38;;;;;;;-146.25;100.00;52424.97;2080704;28;36686;-65
2023/10/11 03:46:03;;;;;;;10.55;7.22;;;;;;;-146.25;100.00;52471.59;2080743;28;35326;-64
2023/10/11 03:47:09;;;;;;;14.68;8.05;;;;;;;-146.25;100.00;52433.06;2080566;28;33020;-65
2023/10/11 03:48:11;;;;;;;12.38;7.65;;;;;;;-146.25;100.00;52431.06;2080837;28;37934;-64
2023/10/11 03:50:34;;;;;;;12.77;8.05;;;;;;;-146.25;100.00;52416.84;2080576;28;36764;-65
2023/10/11 03:51:35;;;;;;;15.25;7.90;;;;;;;-146.25;100.00;52429.03;2082076;28;20508;-65
2023/10/11 03:52:40;;;;;;;14.45;8.25;;;;;;;-146.25;100.00;52420.91;2080264;28;36339;-65
2023/10/11 03:53:41;;;;;;;14.75;7.80;;;;;;;-146.25;100.00;52400.63;2080801;28;36860;-65
2023/10/11 03:54:45;;;;;;;13.45;8.18;;;;;;;-146.25;100.00;52433.06;2080454;28;31268;-65
2023/10/11 03:55:47;;;;;;;15.80;8.65;;;;;;;-146.25;100.00;52453.34;2081236;28;35449;-65
2023/10/11 03:56:54;;;;;;;14.98;7.93;;;;;;;-146.25;100.00;52451.31;2080900;28;20038;-64
2023/10/11 03:57:56;;;;;;;15.23;7.68;;;;;;;-146.25;100.00;52437.13;2080855;28;35500;-64
2023/10/11 03:59:00;;;;;;;13.43;7.60;;;;;;;-146.25;100.00;52402.66;2080561;28;33527;-65
2023/10/11 04:00:46;;;;;;;11.35;7.30;;;;;;;-146.25;100.00;52420.91;2080597;28;34258;-65
2023/10/11 04:01:36;;;;;;;12.52;7.65;;;;;;;-146.25;100.00;52437.13;2080928;28;37793;-64
2023/10/11 04:02:38;;;;;;;12.30;7.90;;;;;;;-146.25;100.00;52437.13;2080587;28;32958;-66
2023/10/11 04:03:42;;;;;;;20.65;8.10;;;;;;;-146.25;100.00;52443.22;2080412;28;35363;-65
2023/10/11 04:04:48;;;;;;;14.50;7.78;;;;;;;-146.25;100.00;52404.69;2080783;28;20042;-65
2023/10/11 04:05:50;;;;;;;11.38;7.80;;;;;;;-146.25;100.00;52449.31;2080643;28;37442;-65
2023/10/11 04:07:01;;;;;;;13.10;7.70;;;;;;;-146.25;100.00;52427.00;2080407;28;33747;-64
2023/10/11 04:08:11;;;;;;;12.98;8.05;;;;;;;-146.25;100.00;52449.31;2088452;28;33215;-65
2023/10/11 04:09:31;;;;;;;18.27;8.07;;;;;;;-146.25;100.00;52408.75;2087392;28;33147;-64
2023/10/11 04:10:39;;;;;;;15.40;7.68;;;;;;;-146.25;100.00;52422.94;2081443;28;20374;-65
2023/10/11 04:11:54;;;;;;;16.35;8.30;;;;;;;-146.25;100.00;52408.75;2088558;28;29214;-65
2023/10/11 04:12:55;;;;;;;17.33;8.60;;;;;;;-146.25;100.00;52400.63;2088216;28;32431;-65
2023/10/11 04:13:57;;;;;;;16.98;8.10;;;;;;;-146.25;100.00;52412.81;2088420;28;20638;-63
2023/10/11 04:15:06;;;;;;;14.38;7.88;;;;;;;-146.25;100.00;52437.13;2087670;28;36848;-64
2023/10/11 04:16:08;;;;;;;13.25;7.93;;;;;;;-146.25;100.00;52429.03;2080671;28;32612;-64
2023/10/11 04:17:30;;;;;;;14.32;7.35;;;;;;;-146.25;100.00;52451.31;2087770;28;36054;-65
2023/10/11 04:19:40;;;;;;;14.20;7.45;;;;;;;-146.25;100.00;52418.88;2080119;28;37522;-64
2023/10/11 04:20:51;;;;;;;12.30;7.85;;;;;;;-146.25;100.00;52424.97;2081300;28;32859;-64
2023/10/11 04:21:54;;;;;;;15.25;7.80;;;;;;;-146.25;100.00;52402.66;2080716;28;29065;-64
2023/10/11 04:23:10;;;;;;;13.95;7.97;;;;;;;-146.25;100.00;52427.00;2080628;28;35477;-64
2023/10/11 04:24:13;;;;;;;13.75;7.85;;;;;;;-146.25;100.00;52437.13;2079947;28;32520;-64
2023/10/11 04:25:18;;;;;;;11.63;8.20;;;;;;;-146.25;100.00;52433.06;2079571;28;37332;-63
2023/10/11 04:28:41;;;;;;;15.93;7.85;;;;;;;-146.25;100.00;52380.38;2080423;28;36519;-64
2023/10/11 04:29:44;;;;;;;14.77;8.00;;;;;;;-146.25;100.00;52439.16;2088680;28;21022;-66
2023/10/11 04:30:47;;;;;;;15.00;7.78;;;;;;;-146.25;100.00;52443.22;2087123;28;36882;-64
2023/10/11 04:33:03;;;;;;;17.17;8.57;;;;;;;-146.25;100.00;52396.59;2080479;28;33481;-65
2023/10/11 04:34:14;;;;;;;11.07;7.68;;;;;;;-146.25;100.00;52420.91;2080939;28;20049;-64
2023/10/11 04:35:22;;;;;;;13.45;7.47;;;;;;;-146.25;100.00;52433.06;2081524;28;20042;-64
2023/10/11 04:36:24;;;;;;;15.55;7.70;;;;;;;-146.25;100.00;52416.84;2080296;28;32502;-64
2023/10/11 04:37:30;;;;;;;16.45;8.10;;;;;;;-146.25;100.00;52414.84;2080271;28;35732;-65
2023/10/11 04:38:34;;;;;;;15.70;8.48;;;;;;;-146.25;100.00;52404.69;2080769;28;27428;-64
2023/10/11 04:39:49;;;;;;;14.18;8.57;;;;;;;-146.25;100.00;52439.16;2087847;28;35231;-64
2023/10/11 04:40:51;;;;;;;12.90;7.72;;;;;;;-146.25;100.00;52408.75;2088291;28;33977;-64
2023/10/11 04:41:57;;;;;;;14.00;8.40;;;;;;;-146.25;100.00;52433.06;2088535;28;20034;-64
2023/10/11 04:43:25;;;;;;;11.52;7.55;;;;;;;-146.25;100.00;52447.28;2080231;28;39791;-64
2023/10/11 04:44:42;;;;;;;16.27;8.63;;;;;;;-146.25;100.00;52408.75;2077816;28;37023;-66
2023/10/11 04:45:44;;;;;;;13.40;8.20;;;;;;;-146.25;100.00;52394.56;2079261;28;38064;-65
2023/10/11 04:47:00;;;;;;;17.95;8.30;;;;;;;-146.25;100.00;52427.00;2080053;28;20943;-66
2023/10/11 04:48:02;;;;;;;19.90;8.57;;;;;;;-146.25;100.00;52408.75;2080563;28;36235;-67
2023/10/11 04:49:21;;;;;;;13.13;8.30;;;;;;;-146.25;100.00;52396.59;2079660;28;35876;-65
2023/10/11 04:50:24;;;;;;;15.65;8.95;;;;;;;-146.25;100.00;52429.03;2087671;28;31265;-64
2023/10/11 04:51:28;;;;;;;14.32;8.05;;;;;;;-146.25;100.00;52447.28;2085409;28;36746;-65
2023/10/11 04:52:36;;;;;;;14.43;7.85;;;;;;;-146.25;100.00;52398.59;2079754;28;33754;-65
2023/10/11 04:53:58;;;;;;;14.85;7.40;;;;;;;-146.25;100.00;52382.38;2081403;28;20038;-64
2023/10/11 04:55:10;;;;;;;15.75;8.27;;;;;;;-146.25;100.00;52416.84;2080585;28;20042;-64
2023/10/11 04:57:40;;;;;;;17.75;8.25;;;;;;;-146.25;100.00;52400.63;2081233;28;20115;-64
2023/10/11 04:58:54;;;;;;;15.60;8.15;;;;;;;-146.25;100.00;52400.63;2080727;28;20034;-63
2023/10/11 04:59:59;;;;;;;16.95;7.82;;;;;;;-146.25;100.00;52437.13;2080350;28;33975;-63
2023/10/11 05:01:08;;;;;;;13.45;8.15;;;;;;;-146.25;100.00;52400.63;2088080;28;34045;-66
2023/10/11 05:02:28;;;;;;;13.70;8.18;;;;;;;-146.25;100.00;52394.56;2079610;28;35718;-64
2023/10/11 05:03:30;;;;;;;14.50;8.32;;;;;;;-146.25;100.00;52412.81;2079601;28;36118;-64
2023/10/11 05:04:41;;;;;;;16.60;8.25;;;;;;;-146.25;100.00;52390.50;2080418;28;37147;-66
2023/10/11 05:05:58;;;;;;;17.95;7.68;;;;;;;-146.25;100.00;52457.41;2087691;28;36354;-64